sensor_id;sensor_type;location;lat;lon;timestamp;pressure;altitude;pressure_sealevel;temperature;humidity
14269;BME280;7218;51.480;7.006;2023-11-19T00:01:33;75495.09;;;-143.00;66.24
14269;BME280;7218;51.480;7.006;2023-11-19T00:03:59;75523.03;;;-143.00;67.39
14269;BME280;7218;51.480;7.006;2023-11-19T00:06:26;75521.03;;;-143.00;65.95
14269;BME280;7218;51.480;7.006;2023-11-19T00:08:53;75618.84;;;-143.00;70.00
14269;BME280;7218;51.480;7.006;2023-11-19T00:11:19;75588.91;;;-143.00;68.68
14269;BME280;7218;51.480;7.006;2023-11-19T00:13:46;75590.91;;;-143.00;69.01
14269;BME280;7218;51.480;7.006;2023-11-19T00:16:14;75566.94;;;-143.00;67.71
14269;BME280;7218;51.480;7.006;2023-11-19T00:18:41;75616.84;;;-143.00;69.77
14269;BME280;7218;51.480;7.006;2023-11-19T00:21:08;75550.97;;;-143.00;67.74
14269;BME280;7218;51.480;7.006;2023-11-19T00:23:35;75602.88;;;-143.00;69.70
14269;BME280;7218;51.480;7.006;2023-11-19T00:26:02;75572.94;;;-143.00;69.27
14269;BME280;7218;51.480;7.006;2023-11-19T00:28:31;75572.94;;;-143.00;68.68
14269;BME280;7218;51.480;7.006;2023-11-19T00:30:58;75463.16;;;-143.00;66.13
14269;BME280;7218;51.480;7.006;2023-11-19T00:33:26;75519.03;;;-143.00;67.42
14269;BME280;7218;51.480;7.006;2023-11-19T00:35:52;75554.97;;;-143.00;69.02
14269;BME280;7218;51.480;7.006;2023-11-19T00:38:19;75405.28;;;-143.00;65.35
14269;BME280;7218;51.480;7.006;2023-11-19T00:40:46;75507.06;;;-143.00;67.21
14269;BME280;7218;51.480;7.006;2023-11-19T00:43:12;75483.13;;;-143.00;66.57
14269;BME280;7218;51.480;7.006;2023-11-19T00:45:39;75471.13;;;-143.00;66.71
14269;BME280;7218;51.480;7.006;2023-11-19T00:48:05;75503.06;;;-143.00;67.88
14269;BME280;7218;51.480;7.006;2023-11-19T00:50:33;75485.13;;;-143.00;68.45
14269;BME280;7218;51.480;7.006;2023-11-19T00:53:00;75465.16;;;-143.00;67.16
14269;BME280;7218;51.480;7.006;2023-11-19T00:55:28;75453.19;;;-143.00;67.12
14269;BME280;7218;51.480;7.006;2023-11-19T00:57:55;75529.03;;;-143.00;69.67
14269;BME280;7218;51.480;7.006;2023-11-19T01:00:22;75543.00;;;-143.00;71.34
14269;BME280;7218;51.480;7.006;2023-11-19T01:02:49;75531.03;;;-143.00;71.36
14269;BME280;7218;51.480;7.006;2023-11-19T01:05:16;75560.97;;;-143.00;72.39
14269;BME280;7218;51.480;7.006;2023-11-19T01:07:44;75467.16;;;-143.00;70.07
14269;BME280;7218;51.480;7.006;2023-11-19T01:10:10;75537.00;;;-143.00;71.53
14269;BME280;7218;51.480;7.006;2023-11-19T01:12:37;75527.03;;;-143.00;70.95
14269;BME280;7218;51.480;7.006;2023-11-19T01:15:05;75461.16;;;-143.00;69.91
14269;BME280;7218;51.480;7.006;2023-11-19T01:17:31;75425.22;;;-143.00;68.99
14269;BME280;7218;51.480;7.006;2023-11-19T01:19:58;75501.09;;;-143.00;71.09
14269;BME280;7218;51.480;7.006;2023-11-19T01:22:24;75493.09;;;-143.00;71.37
14269;BME280;7218;51.480;7.006;2023-11-19T01:24:52;75465.16;;;-143.00;71.04
14269;BME280;7218;51.480;7.006;2023-11-19T01:27:19;75507.06;;;-143.00;71.32
14269;BME280;7218;51.480;7.006;2023-11-19T01:29:46;75451.19;;;-143.00;69.91
14269;BME280;7218;51.480;7.006;2023-11-19T01:32:12;75491.09;;;-143.00;71.37
14269;BME280;7218;51.480;7.006;2023-11-19T01:34:40;75415.25;;;-143.00;69.39
14269;BME280;7218;51.480;7.006;2023-11-19T01:37:07;75415.25;;;-143.00;69.20
14269;BME280;7218;51.480;7.006;2023-11-19T01:39:34;75423.22;;;-143.00;69.27
14269;BME280;7218;51.480;7.006;2023-11-19T01:42:02;75483.13;;;-143.00;71.76
14269;BME280;7218;51.480;7.006;2023-11-19T01:44:28;75417.25;;;-143.00;68.68
14269;BME280;7218;51.480;7.006;2023-11-19T01:46:55;75479.13;;;-143.00;70.60
14269;BME280;7218;51.480;7.006;2023-11-19T01:49:22;75483.13;;;-143.00;71.13
14269;BME280;7218;51.480;7.006;2023-11-19T01:51:49;75481.13;;;-143.00;71.54
14269;BME280;7218;51.480;7.006;2023-11-19T01:54:15;75403.28;;;-143.00;69.47
14269;BME280;7218;51.480;7.006;2023-11-19T01:56:42;75427.22;;;-143.00;69.62
14269;BME280;7218;51.480;7.006;2023-11-19T01:59:12;75403.28;;;-143.00;70.28
14269;BME280;7218;51.480;7.006;2023-11-19T02:01:40;75445.19;;;-143.00;71.16
14269;BME280;7218;51.480;7.006;2023-11-19T02:04:07;75391.31;;;-143.00;69.64
14269;BME280;7218;51.480;7.006;2023-11-19T02:06:34;75459.16;;;-143.00;71.12
14269;BME280;7218;51.480;7.006;2023-11-19T02:09:02;75447.19;;;-143.00;71.37
14269;BME280;7218;51.480;7.006;2023-11-19T02:11:33;75363.34;;;-143.00;68.95
14269;BME280;7218;51.480;7.006;2023-11-19T02:14:00;75423.22;;;-143.00;71.12
14269;BME280;7218;51.480;7.006;2023-11-19T02:16:29;75315.44;;;-143.00;68.38
14269;BME280;7218;51.480;7.006;2023-11-19T02:18:55;75357.38;;;-143.00;69.85
14269;BME280;7218;51.480;7.006;2023-11-19T02:21:22;75265.56;;;-143.00;66.75
14269;BME280;7218;51.480;7.006;2023-11-19T02:23:48;75377.31;;;-143.00;69.56
14269;BME280;7218;51.480;7.006;2023-11-19T02:26:19;75351.38;;;-143.00;69.07
14269;BME280;7218;51.480;7.006;2023-11-19T02:28:50;75397.28;;;-143.00;70.17
14269;BME280;7218;51.480;7.006;2023-11-19T02:31:17;75243.59;;;-143.00;66.26
14269;BME280;7218;51.480;7.006;2023-11-19T02:33:44;75331.41;;;-143.00;67.84
14269;BME280;7218;51.480;7.006;2023-11-19T02:36:11;75359.38;;;-143.00;68.78
14269;BME280;7218;51.480;7.006;2023-11-19T02:38:37;75423.22;;;-143.00;72.01
14269;BME280;7218;51.480;7.006;2023-11-19T02:41:05;75291.50;;;-143.00;67.58
14269;BME280;7218;51.480;7.006;2023-11-19T02:43:32;75351.38;;;-143.00;68.43
14269;BME280;7218;51.480;7.006;2023-11-19T02:46:01;75347.38;;;-143.00;69.29
14269;BME280;7218;51.480;7.006;2023-11-19T02:48:29;75363.34;;;-143.00;69.10
14269;BME280;7218;51.480;7.006;2023-11-19T02:50:56;75375.34;;;-143.00;69.44
14269;BME280;7218;51.480;7.006;2023-11-19T02:53:23;75303.47;;;-143.00;67.07
14269;BME280;7218;51.480;7.006;2023-11-19T02:55:52;75343.41;;;-143.00;68.97
14269;BME280;7218;51.480;7.006;2023-11-19T02:58:26;75355.38;;;-143.00;68.80
14269;BME280;7218;51.480;7.006;2023-11-19T03:00:53;75371.34;;;-143.00;69.74
14269;BME280;7218;51.480;7.006;2023-11-19T03:03:25;75375.34;;;-143.00;69.69
14269;BME280;7218;51.480;7.006;2023-11-19T03:05:56;75357.38;;;-143.00;69.49
14269;BME280;7218;51.480;7.006;2023-11-19T03:08:22;75379.31;;;-143.00;69.96
14269;BME280;7218;51.480;7.006;2023-11-19T03:10:49;75373.34;;;-143.00;70.08
14269;BME280;7218;51.480;7.006;2023-11-19T03:13:16;75347.38;;;-143.00;69.65
14269;BME280;7218;51.480;7.006;2023-11-19T03:15:43;75331.41;;;-143.00;68.31
14269;BME280;7218;51.480;7.006;2023-11-19T03:18:09;75319.44;;;-143.00;68.23
14269;BME280;7218;51.480;7.006;2023-11-19T03:20:37;75253.56;;;-143.00;66.82
14269;BME280;7218;51.480;7.006;2023-11-19T03:23:04;75295.50;;;-143.00;67.95
14269;BME280;7218;51.480;7.006;2023-11-19T03:25:31;75343.41;;;-143.00;69.15
14269;BME280;7218;51.480;7.006;2023-11-19T03:27:59;75363.34;;;-143.00;70.38
14269;BME280;7218;51.480;7.006;2023-11-19T03:30:29;75275.53;;;-143.00;67.27
14269;BME280;7218;51.480;7.006;2023-11-19T03:32:56;75327.44;;;-143.00;68.22
14269;BME280;7218;51.480;7.006;2023-11-19T03:35:23;75295.50;;;-143.00;66.81
14269;BME280;7218;51.480;7.006;2023-11-19T03:37:51;75305.47;;;-143.00;66.83
14269;BME280;7218;51.480;7.006;2023-11-19T03:40:18;75351.38;;;-143.00;68.14
14269;BME280;7218;51.480;7.006;2023-11-19T03:42:45;75309.47;;;-143.00;66.37
14269;BME280;7218;51.480;7.006;2023-11-19T03:45:10;75303.47;;;-143.00;65.70
14269;BME280;7218;51.480;7.006;2023-11-19T03:47:37;75341.41;;;-143.00;66.45
14269;BME280;7218;51.480;7.006;2023-11-19T03:50:05;75355.38;;;-143.00;66.52
14269;BME280;7218;51.480;7.006;2023-11-19T03:52:32;75325.44;;;-143.00;66.05
14269;BME280;7218;51.480;7.006;2023-11-19T03:55:00;75323.44;;;-143.00;65.63
14269;BME280;7218;51.480;7.006;2023-11-19T03:57:27;75307.47;;;-143.00;65.09
14269;BME280;7218;51.480;7.006;2023-11-19T03:59:53;75297.50;;;-143.00;64.19
14269;BME280;7218;51.480;7.006;2023-11-19T04:02:21;75321.44;;;-143.00;64.58
14269;BME280;7218;51.480;7.006;2023-11-19T04:04:47;75307.47;;;-143.00;63.62
14269;BME280;7218;51.480;7.006;2023-11-19T04:07:14;75259.56;;;-143.00;62.95
14269;BME280;7218;51.480;7.006;2023-11-19T04:09:40;75365.34;;;-143.00;65.38
14269;BME280;7218;51.480;7.006;2023-11-19T04:12:08;75359.38;;;-143.00;64.86
14269;BME280;7218;51.480;7.006;2023-11-19T04:14:36;75331.41;;;-143.00;64.14
14269;BME280;7218;51.480;7.006;2023-11-19T04:17:03;75365.34;;;-143.00;65.33
14269;BME280;7218;51.480;7.006;2023-11-19T04:19:29;75319.44;;;-143.00;63.84
14269;BME280;7218;51.480;7.006;2023-11-19T04:21:58;75357.38;;;-143.00;64.83
14269;BME280;7218;51.480;7.006;2023-11-19T04:24:24;75317.44;;;-143.00;63.57
14269;BME280;7218;51.480;7.006;2023-11-19T04:26:50;75377.31;;;-143.00;64.51
14269;BME280;7218;51.480;7.006;2023-11-19T04:29:19;75323.44;;;-143.00;63.42
14269;BME280;7218;51.480;7.006;2023-11-19T04:31:45;75411.25;;;-143.00;65.39
14269;BME280;7218;51.480;7.006;2023-11-19T04:34:12;75457.16;;;-143.00;65.40
14269;BME280;7218;51.480;7.006;2023-11-19T04:36:38;75407.28;;;-143.00;63.96
14269;BME280;7218;51.480;7.006;2023-11-19T04:39:05;75347.38;;;-143.00;62.62
14269;BME280;7218;51.480;7.006;2023-11-19T04:41:34;75363.34;;;-143.00;62.77
14269;BME280;7218;51.480;7.006;2023-11-19T04:44:01;75327.44;;;-143.00;61.05
14269;BME280;7218;51.480;7.006;2023-11-19T04:46:29;75297.50;;;-143.00;60.44
14269;BME280;7218;51.480;7.006;2023-11-19T04:48:55;75347.38;;;-143.00;61.30
14269;BME280;7218;51.480;7.006;2023-11-19T04:51:22;75339.41;;;-143.00;61.15
14269;BME280;7218;51.480;7.006;2023-11-19T04:53:48;75357.38;;;-143.00;61.64
14269;BME280;7218;51.480;7.006;2023-11-19T04:56:15;75291.50;;;-143.00;60.13
14269;BME280;7218;51.480;7.006;2023-11-19T04:58:44;75387.31;;;-143.00;62.89
14269;BME280;7218;51.480;7.006;2023-11-19T05:01:13;75457.16;;;-143.00;64.21
14269;BME280;7218;51.480;7.006;2023-11-19T05:03:43;75393.28;;;-143.00;63.54
14269;BME280;7218;51.480;7.006;2023-11-19T05:06:10;75399.28;;;-143.00;62.38
14269;BME280;7218;51.480;7.006;2023-11-19T05:08:37;75347.38;;;-143.00;60.92
14269;BME280;7218;51.480;7.006;2023-11-19T05:11:04;75377.31;;;-143.00;61.42
14269;BME280;7218;51.480;7.006;2023-11-19T05:13:31;75359.38;;;-143.00;60.22
14269;BME280;7218;51.480;7.006;2023-11-19T05:15:57;75301.47;;;-143.00;58.83
14269;BME280;7218;51.480;7.006;2023-11-19T05:18:24;75291.50;;;-143.00;58.51
14269;BME280;7218;51.480;7.006;2023-11-19T05:20:51;75369.34;;;-143.00;61.25
14269;BME280;7218;51.480;7.006;2023-11-19T05:23:18;75383.31;;;-143.00;61.80
14269;BME280;7218;51.480;7.006;2023-11-19T05:25:45;75363.34;;;-143.00;61.77
14269;BME280;7218;51.480;7.006;2023-11-19T05:28:13;75435.22;;;-143.00;63.72
14269;BME280;7218;51.480;7.006;2023-11-19T05:30:39;75293.50;;;-143.00;59.83
14269;BME280;7218;51.480;7.006;2023-11-19T05:33:06;75397.28;;;-143.00;62.28
14269;BME280;7218;51.480;7.006;2023-11-19T05:35:34;75349.38;;;-143.00;61.11
14269;BME280;7218;51.480;7.006;2023-11-19T05:38:02;75285.50;;;-143.00;59.04
14269;BME280;7218;51.480;7.006;2023-11-19T05:40:28;75283.53;;;-143.00;59.34
14269;BME280;7218;51.480;7.006;2023-11-19T05:42:55;75339.41;;;-143.00;60.08
14269;BME280;7218;51.480;7.006;2023-11-19T05:45:21;75317.44;;;-143.00;59.59
14269;BME280;7218;51.480;7.006;2023-11-19T05:47:48;75369.34;;;-143.00;61.70
14269;BME280;7218;51.480;7.006;2023-11-19T05:50:14;75345.41;;;-143.00;60.45
14269;BME280;7218;51.480;7.006;2023-11-19T05:52:41;75383.31;;;-143.00;61.29
14269;BME280;7218;51.480;7.006;2023-11-19T05:55:09;75395.28;;;-143.00;61.49
14269;BME280;7218;51.480;7.006;2023-11-19T05:57:36;75371.34;;;-143.00;60.36
14269;BME280;7218;51.480;7.006;2023-11-19T06:00:03;75375.34;;;-143.00;60.08
14269;BME280;7218;51.480;7.006;2023-11-19T06:02:32;75435.22;;;-143.00;61.70
14269;BME280;7218;51.480;7.006;2023-11-19T06:04:59;75401.28;;;-143.00;60.33
14269;BME280;7218;51.480;7.006;2023-11-19T06:07:25;75435.22;;;-143.00;61.54
14269;BME280;7218;51.480;7.006;2023-11-19T06:09:51;75455.16;;;-143.00;61.44
14269;BME280;7218;51.480;7.006;2023-11-19T06:12:19;75397.28;;;-143.00;61.37
14269;BME280;7218;51.480;7.006;2023-11-19T06:14:46;75405.28;;;-143.00;61.19
14269;BME280;7218;51.480;7.006;2023-11-19T06:17:13;75353.38;;;-143.00;59.38
14269;BME280;7218;51.480;7.006;2023-11-19T06:19:39;75383.31;;;-143.00;59.70
14269;BME280;7218;51.480;7.006;2023-11-19T06:22:05;75405.28;;;-143.00;60.39
14269;BME280;7218;51.480;7.006;2023-11-19T06:24:32;75447.19;;;-143.00;60.70
14269;BME280;7218;51.480;7.006;2023-11-19T06:26:58;75379.31;;;-143.00;59.72
14269;BME280;7218;51.480;7.006;2023-11-19T06:29:26;75413.25;;;-143.00;59.92
14269;BME280;7218;51.480;7.006;2023-11-19T06:31:53;75415.25;;;-143.00;60.17
14269;BME280;7218;51.480;7.006;2023-11-19T06:34:19;75415.25;;;-143.00;60.36
14269;BME280;7218;51.480;7.006;2023-11-19T06:36:46;75339.41;;;-143.00;58.40
14269;BME280;7218;51.480;7.006;2023-11-19T06:39:13;75419.25;;;-143.00;59.98
14269;BME280;7218;51.480;7.006;2023-11-19T06:41:44;75361.34;;;-143.00;58.67
14269;BME280;7218;51.480;7.006;2023-11-19T06:44:11;75427.22;;;-143.00;59.11
14269;BME280;7218;51.480;7.006;2023-11-19T06:46:39;75389.31;;;-143.00;58.50
14269;BME280;7218;51.480;7.006;2023-11-19T06:49:05;75495.09;;;-143.00;59.70
14269;BME280;7218;51.480;7.006;2023-11-19T06:51:33;75435.22;;;-143.00;57.90
14269;BME280;7218;51.480;7.006;2023-11-19T06:54:00;75421.25;;;-143.00;57.11
14269;BME280;7218;51.480;7.006;2023-11-19T06:56:26;75527.03;;;-143.00;59.32
14269;BME280;7218;51.480;7.006;2023-11-19T06:58:53;75469.16;;;-143.00;57.69
14269;BME280;7218;51.480;7.006;2023-11-19T07:01:20;75483.13;;;-143.00;57.67
14269;BME280;7218;51.480;7.006;2023-11-19T07:03:48;75473.13;;;-143.00;57.27
14269;BME280;7218;51.480;7.006;2023-11-19T07:06:16;75371.34;;;-143.00;55.34
14269;BME280;7218;51.480;7.006;2023-11-19T07:08:43;75471.13;;;-143.00;56.95
14269;BME280;7218;51.480;7.006;2023-11-19T07:11:11;75485.13;;;-143.00;57.15
14269;BME280;7218;51.480;7.006;2023-11-19T07:13:37;75415.25;;;-143.00;55.34
14269;BME280;7218;51.480;7.006;2023-11-19T07:16:05;75491.09;;;-143.00;57.30
14269;BME280;7218;51.480;7.006;2023-11-19T07:18:35;75527.03;;;-143.00;58.39
14269;BME280;7218;51.480;7.006;2023-11-19T07:21:04;75517.06;;;-143.00;58.45
14269;BME280;7218;51.480;7.006;2023-11-19T07:23:30;75511.06;;;-143.00;57.95
14269;BME280;7218;51.480;7.006;2023-11-19T07:25:58;75549.00;;;-143.00;57.85
14269;BME280;7218;51.480;7.006;2023-11-19T07:28:24;75495.09;;;-143.00;56.74
14269;BME280;7218;51.480;7.006;2023-11-19T07:30:51;75517.06;;;-143.00;56.94
14269;BME280;7218;51.480;7.006;2023-11-19T07:33:17;75529.03;;;-143.00;56.70
14269;BME280;7218;51.480;7.006;2023-11-19T07:35:44;75495.09;;;-143.00;56.47
14269;BME280;7218;51.480;7.006;2023-11-19T07:38:12;75531.03;;;-143.00;57.55
14269;BME280;7218;51.480;7.006;2023-11-19T07:40:38;75501.09;;;-143.00;56.48
14269;BME280;7218;51.480;7.006;2023-11-19T07:43:05;75543.00;;;-143.00;57.55
14269;BME280;7218;51.480;7.006;2023-11-19T07:45:32;75487.09;;;-143.00;55.92
14269;BME280;7218;51.480;7.006;2023-11-19T07:47:59;75535.00;;;-143.00;57.27
14269;BME280;7218;51.480;7.006;2023-11-19T07:50:26;75499.09;;;-143.00;55.57
14269;BME280;7218;51.480;7.006;2023-11-19T07:52:53;75531.03;;;-143.00;56.06
14269;BME280;7218;51.480;7.006;2023-11-19T07:55:21;75483.13;;;-143.00;55.32
14269;BME280;7218;51.480;7.006;2023-11-19T07:57:47;75461.16;;;-143.00;54.52
14269;BME280;7218;51.480;7.006;2023-11-19T08:00:14;75547.00;;;-143.00;56.25
14269;BME280;7218;51.480;7.006;2023-11-19T08:02:41;75515.06;;;-143.00;55.31
14269;BME280;7218;51.480;7.006;2023-11-19T08:05:08;75455.16;;;-143.00;54.32
14269;BME280;7218;51.480;7.006;2023-11-19T08:07:35;75483.13;;;-143.00;54.58
14269;BME280;7218;51.480;7.006;2023-11-19T08:10:02;75521.03;;;-143.00;55.13
14269;BME280;7218;51.480;7.006;2023-11-19T08:12:31;75509.06;;;-143.00;54.94
14269;BME280;7218;51.480;7.006;2023-11-19T08:15:00;75485.13;;;-143.00;54.64
14269;BME280;7218;51.480;7.006;2023-11-19T08:17:27;75469.16;;;-143.00;53.70
14269;BME280;7218;51.480;7.006;2023-11-19T08:19:53;75618.84;;;-143.00;57.22
14269;BME280;7218;51.480;7.006;2023-11-19T08:22:20;75568.94;;;-143.00;55.70
14269;BME280;7218;51.480;7.006;2023-11-19T08:24:47;75511.06;;;-143.00;54.87
14269;BME280;7218;51.480;7.006;2023-11-19T08:27:14;75586.91;;;-143.00;56.81
14269;BME280;7218;51.480;7.006;2023-11-19T08:29:42;75550.97;;;-143.00;56.28
14269;BME280;7218;51.480;7.006;2023-11-19T08:32:08;75594.91;;;-143.00;56.82
14269;BME280;7218;51.480;7.006;2023-11-19T08:34:36;75521.03;;;-143.00;55.54
14269;BME280;7218;51.480;7.006;2023-11-19T08:37:03;75503.06;;;-143.00;55.00
14269;BME280;7218;51.480;7.006;2023-11-19T08:39:29;75517.06;;;-143.00;55.38
14269;BME280;7218;51.480;7.006;2023-11-19T08:41:56;75549.00;;;-143.00;56.25
14269;BME280;7218;51.480;7.006;2023-11-19T08:44:23;75550.97;;;-143.00;56.15
14269;BME280;7218;51.480;7.006;2023-11-19T08:46:52;75525.03;;;-143.00;55.58
14269;BME280;7218;51.480;7.006;2023-11-19T08:49:18;75491.09;;;-143.00;55.32
14269;BME280;7218;51.480;7.006;2023-11-19T08:51:45;75527.03;;;-143.00;55.62
14269;BME280;7218;51.480;7.006;2023-11-19T08:54:12;75495.09;;;-143.00;54.54
14269;BME280;7218;51.480;7.006;2023-11-19T08:56:39;75467.16;;;-143.00;54.43
14269;BME280;7218;51.480;7.006;2023-11-19T08:59:06;75457.16;;;-143.00;53.75
14269;BME280;7218;51.480;7.006;2023-11-19T09:01:34;75525.03;;;-143.00;55.12
14269;BME280;7218;51.480;7.006;2023-11-19T09:04:01;75523.03;;;-143.00;55.83
14269;BME280;7218;51.480;7.006;2023-11-19T09:06:28;75511.06;;;-143.00;55.19
14269;BME280;7218;51.480;7.006;2023-11-19T09:08:54;75471.13;;;-143.00;54.55
14269;BME280;7218;51.480;7.006;2023-11-19T09:11:25;75556.97;;;-143.00;55.90
14269;BME280;7218;51.480;7.006;2023-11-19T09:13:52;75574.94;;;-143.00;56.19
14269;BME280;7218;51.480;7.006;2023-11-19T09:16:18;75523.03;;;-143.00;55.21
14269;BME280;7218;51.480;7.006;2023-11-19T09:18:45;75499.09;;;-143.00;54.40
14269;BME280;7218;51.480;7.006;2023-11-19T09:21:13;75509.06;;;-143.00;55.04
14269;BME280;7218;51.480;7.006;2023-11-19T09:23:39;75521.03;;;-143.00;55.11
14269;BME280;7218;51.480;7.006;2023-11-19T09:26:08;75419.25;;;-143.00;53.59
14269;BME280;7218;51.480;7.006;2023-11-19T09:28:35;75447.19;;;-143.00;53.67
14269;BME280;7218;51.480;7.006;2023-11-19T09:31:01;75473.13;;;-143.00;54.85
14269;BME280;7218;51.480;7.006;2023-11-19T09:33:29;75419.25;;;-143.00;53.65
14269;BME280;7218;51.480;7.006;2023-11-19T09:35:56;75407.28;;;-143.00;52.68
14269;BME280;7218;51.480;7.006;2023-11-19T09:38:24;75473.13;;;-143.00;53.88
14269;BME280;7218;51.480;7.006;2023-11-19T09:40:50;75421.25;;;-143.00;53.08
14269;BME280;7218;51.480;7.006;2023-11-19T09:43:17;75343.41;;;-143.00;51.74
14269;BME280;7218;51.480;7.006;2023-11-19T09:45:48;75227.63;;;-143.00;49.10
14269;BME280;7218;51.480;7.006;2023-11-19T09:48:16;75241.59;;;-143.00;48.86
14269;BME280;7218;51.480;7.006;2023-11-19T09:50:44;75279.53;;;-143.00;49.96
14269;BME280;7218;51.480;7.006;2023-11-19T09:53:10;75305.47;;;-143.00;49.92
14269;BME280;7218;51.480;7.006;2023-11-19T09:55:39;75407.28;;;-143.00;51.80
14269;BME280;7218;51.480;7.006;2023-11-19T09:58:06;75407.28;;;-143.00;52.10
14269;BME280;7218;51.480;7.006;2023-11-19T10:00:33;75347.38;;;-143.00;49.94
14269;BME280;7218;51.480;7.006;2023-11-19T10:03:00;75383.31;;;-143.00;51.08
14269;BME280;7218;51.480;7.006;2023-11-19T10:05:26;75467.16;;;-143.00;52.41
14269;BME280;7218;51.480;7.006;2023-11-19T10:07:53;75363.34;;;-143.00;50.28
14269;BME280;7218;51.480;7.006;2023-11-19T10:10:20;75409.25;;;-143.00;51.63
14269;BME280;7218;51.480;7.006;2023-11-19T10:12:51;75389.31;;;-143.00;51.46
14269;BME280;7218;51.480;7.006;2023-11-19T10:15:21;75369.34;;;-143.00;50.67
14269;BME280;7218;51.480;7.006;2023-11-19T10:17:48;75303.47;;;-143.00;49.42
14269;BME280;7218;51.480;7.006;2023-11-19T10:20:15;75513.06;;;-143.00;52.61
14269;BME280;7218;51.480;7.006;2023-11-19T10:22:43;75385.31;;;-143.00;50.80
14269;BME280;7218;51.480;7.006;2023-11-19T10:25:22;75333.41;;;-143.00;50.18
14269;BME280;7218;51.480;7.006;2023-11-19T10:27:50;75287.50;;;-143.00;49.33
14269;BME280;7218;51.480;7.006;2023-11-19T10:30:18;75397.28;;;-143.00;51.20
14269;BME280;7218;51.480;7.006;2023-11-19T10:32:44;75331.41;;;-143.00;49.64
14269;BME280;7218;51.480;7.006;2023-11-19T10:35:11;75407.28;;;-143.00;50.30
14269;BME280;7218;51.480;7.006;2023-11-19T10:37:38;75395.28;;;-143.00;50.67
14269;BME280;7218;51.480;7.006;2023-11-19T10:40:07;75375.34;;;-143.00;50.61
14269;BME280;7218;51.480;7.006;2023-11-19T10:42:35;75433.22;;;-143.00;51.35
14269;BME280;7218;51.480;7.006;2023-11-19T10:45:04;75379.31;;;-143.00;50.92
14269;BME280;7218;51.480;7.006;2023-11-19T10:47:32;75335.41;;;-143.00;49.35
14269;BME280;7218;51.480;7.006;2023-11-19T10:49:58;75311.47;;;-143.00;49.19
14269;BME280;7218;51.480;7.006;2023-11-19T10:52:26;75361.34;;;-143.00;49.67
14269;BME280;7218;51.480;7.006;2023-11-19T10:54:55;75341.41;;;-143.00;49.41
14269;BME280;7218;51.480;7.006;2023-11-19T10:57:26;75393.28;;;-143.00;50.64
14269;BME280;7218;51.480;7.006;2023-11-19T11:00:01;75397.28;;;-143.00;50.82
14269;BME280;7218;51.480;7.006;2023-11-19T11:02:34;75453.19;;;-143.00;51.34
14269;BME280;7218;51.480;7.006;2023-11-19T11:05:01;75385.31;;;-143.00;49.68
14269;BME280;7218;51.480;7.006;2023-11-19T11:07:29;75395.28;;;-143.00;50.91
14269;BME280;7218;51.480;7.006;2023-11-19T11:09:57;75299.50;;;-143.00;48.66
14269;BME280;7218;51.480;7.006;2023-11-19T11:12:25;75319.44;;;-143.00;49.05
14269;BME280;7218;51.480;7.006;2023-11-19T11:14:53;75307.47;;;-143.00;48.62
14269;BME280;7218;51.480;7.006;2023-11-19T11:17:24;75451.19;;;-143.00;51.08
14269;BME280;7218;51.480;7.006;2023-11-19T11:19:53;75459.16;;;-143.00;51.47
14269;BME280;7218;51.480;7.006;2023-11-19T11:22:21;75483.13;;;-143.00;51.72
14269;BME280;7218;51.480;7.006;2023-11-19T11:25:02;75327.44;;;-143.00;49.25
14269;BME280;7218;51.480;7.006;2023-11-19T11:27:48;75349.38;;;-143.00;49.25
14269;BME280;7218;51.480;7.006;2023-11-19T11:30:28;75343.41;;;-143.00;48.58
14269;BME280;7218;51.480;7.006;2023-11-19T11:33:06;75343.41;;;-143.00;48.60
14269;BME280;7218;51.480;7.006;2023-11-19T11:35:47;75171.75;;;-143.00;45.76
14269;BME280;7218;51.480;7.006;2023-11-19T11:38:16;75239.59;;;-143.00;46.25
14269;BME280;7218;51.480;7.006;2023-11-19T11:41:15;75155.78;;;-143.00;44.47
14269;BME280;7218;51.480;7.006;2023-11-19T11:43:45;75008.09;;;-143.00;42.06
14269;BME280;7218;51.480;7.006;2023-11-19T11:49:12;75219.66;;;-143.00;45.47
14269;BME280;7218;51.480;7.006;2023-11-19T11:51:58;75221.66;;;-143.00;45.86
14269;BME280;7218;51.480;7.006;2023-11-19T11:54:26;75315.44;;;-143.00;48.06
14269;BME280;7218;51.480;7.006;2023-11-19T11:57:06;75227.63;;;-143.00;46.14
14269;BME280;7218;51.480;7.006;2023-11-19T11:59:46;75201.69;;;-143.00;45.92
14269;BME280;7218;51.480;7.006;2023-11-19T12:02:15;75065.97;;;-143.00;42.68
14269;BME280;7218;51.480;7.006;2023-11-19T12:04:43;75073.94;;;-143.00;42.98
14269;BME280;7218;51.480;7.006;2023-11-19T12:07:16;74874.38;;;-143.00;40.09
14269;BME280;7218;51.480;7.006;2023-11-19T12:09:47;75077.94;;;-143.00;41.40
14269;BME280;7218;51.480;7.006;2023-11-19T12:12:22;75149.78;;;-143.00;43.20
14269;BME280;7218;51.480;7.006;2023-11-19T12:15:05;75115.88;;;-143.00;43.18
14269;BME280;7218;51.480;7.006;2023-11-19T12:17:56;75199.69;;;-143.00;43.99
14269;BME280;7218;51.480;7.006;2023-11-19T12:20:24;75195.69;;;-143.00;44.65
14269;BME280;7218;51.480;7.006;2023-11-19T12:22:53;75287.50;;;-143.00;45.58
14269;BME280;7218;51.480;7.006;2023-11-19T12:25:20;75315.44;;;-143.00;46.12
14269;BME280;7218;51.480;7.006;2023-11-19T12:27:48;75171.75;;;-143.00;44.01
14269;BME280;7218;51.480;7.006;2023-11-19T12:30:17;75329.44;;;-143.00;46.98
14269;BME280;7218;51.480;7.006;2023-11-19T12:32:45;75233.63;;;-143.00;45.76
14269;BME280;7218;51.480;7.006;2023-11-19T12:35:12;75187.72;;;-143.00;45.03
14269;BME280;7218;51.480;7.006;2023-11-19T12:37:40;75295.50;;;-143.00;46.62
14269;BME280;7218;51.480;7.006;2023-11-19T12:40:14;75211.66;;;-143.00;45.20
14269;BME280;7218;51.480;7.006;2023-11-19T12:42:41;75255.56;;;-143.00;46.01
14269;BME280;7218;51.480;7.006;2023-11-19T12:45:08;75255.56;;;-143.00;46.24
14269;BME280;7218;51.480;7.006;2023-11-19T12:47:35;75319.44;;;-143.00;47.44
14269;BME280;7218;51.480;7.006;2023-11-19T12:50:02;75271.53;;;-143.00;47.54
14269;BME280;7218;51.480;7.006;2023-11-19T12:52:29;75389.31;;;-143.00;52.96
14269;BME280;7218;51.480;7.006;2023-11-19T12:54:55;75333.41;;;-143.00;53.13
14269;BME280;7218;51.480;7.006;2023-11-19T12:57:37;75343.41;;;-143.00;55.06